sensor_id;sensor_type;location;lat;lon;timestamp;P1;durP1;ratioP1;P2;durP2;ratioP2
66727;SDS011;53641;44.274;19.890;2022-12-18T00:01:32;32.70;;;18.65;;
66727;SDS011;53641;44.274;19.890;2022-12-18T00:03:59;27.70;;;17.23;;
66727;SDS011;53641;44.274;19.890;2022-12-18T00:06:26;31.55;;;17.80;;
66727;SDS011;53641;44.274;19.890;2022-12-18T00:08:54;29.38;;;16.73;;
66727;SDS011;53641;44.274;19.890;2022-12-18T00:11:23;29.98;;;17.80;;
66727;SDS011;53641;44.274;19.890;2022-12-18T00:13:50;29.50;;;17.00;;
66727;SDS011;53641;44.274;19.890;2022-12-18T00:16:17;28.85;;;17.25;;
66727;SDS011;53641;44.274;19.890;2022-12-18T00:18:46;28.92;;;17.05;;
66727;SDS011;53641;44.274;19.890;2022-12-18T00:21:12;27.52;;;17.23;;
66727;SDS011;53641;44.274;19.890;2022-12-18T00:23:40;29.30;;;17.58;;
66727;SDS011;53641;44.274;19.890;2022-12-18T00:26:12;31.73;;;17.65;;
66727;SDS011;53641;44.274;19.890;2022-12-18T00:28:40;27.60;;;16.52;;
66727;SDS011;53641;44.274;19.890;2022-12-18T00:31:07;29.08;;;14.95;;
66727;SDS011;53641;44.274;19.890;2022-12-18T00:33:34;25.58;;;15.20;;
66727;SDS011;53641;44.274;19.890;2022-12-18T00:36:07;30.55;;;16.17;;
66727;SDS011;53641;44.274;19.890;2022-12-18T00:38:42;23.23;;;13.73;;
66727;SDS011;53641;44.274;19.890;2022-12-18T00:41:09;25.48;;;14.98;;
66727;SDS011;53641;44.274;19.890;2022-12-18T00:43:36;24.42;;;14.68;;
66727;SDS011;53641;44.274;19.890;2022-12-18T00:46:02;27.40;;;14.55;;
66727;SDS011;53641;44.274;19.890;2022-12-18T00:48:28;24.83;;;14.32;;
66727;SDS011;53641;44.274;19.890;2022-12-18T00:50:54;27.00;;;14.65;;
66727;SDS011;53641;44.274;19.890;2022-12-18T00:53:20;25.33;;;13.70;;
66727;SDS011;53641;44.274;19.890;2022-12-18T00:55:46;23.52;;;14.10;;
66727;SDS011;53641;44.274;19.890;2022-12-18T00:58:13;23.13;;;14.00;;
66727;SDS011;53641;44.274;19.890;2022-12-18T01:00:40;23.63;;;13.18;;
66727;SDS011;53641;44.274;19.890;2022-12-18T01:03:06;20.90;;;12.35;;
66727;SDS011;53641;44.274;19.890;2022-12-18T01:05:32;21.15;;;12.27;;
66727;SDS011;53641;44.274;19.890;2022-12-18T01:07:58;23.75;;;13.38;;
66727;SDS011;53641;44.274;19.890;2022-12-18T01:10:24;22.75;;;12.85;;
66727;SDS011;53641;44.274;19.890;2022-12-18T01:12:50;21.67;;;13.40;;
66727;SDS011;53641;44.274;19.890;2022-12-18T01:15:17;21.77;;;13.40;;
66727;SDS011;53641;44.274;19.890;2022-12-18T01:17:43;21.88;;;12.90;;
66727;SDS011;53641;44.274;19.890;2022-12-18T01:20:10;23.67;;;13.05;;
66727;SDS011;53641;44.274;19.890;2022-12-18T01:22:37;20.80;;;11.88;;
66727;SDS011;53641;44.274;19.890;2022-12-18T01:25:03;22.42;;;12.07;;
66727;SDS011;53641;44.274;19.890;2022-12-18T01:27:29;21.10;;;11.93;;
66727;SDS011;53641;44.274;19.890;2022-12-18T01:29:55;23.20;;;13.38;;
66727;SDS011;53641;44.274;19.890;2022-12-18T01:32:21;24.85;;;13.02;;
66727;SDS011;53641;44.274;19.890;2022-12-18T01:34:47;21.20;;;12.18;;
66727;SDS011;53641;44.274;19.890;2022-12-18T01:37:13;24.23;;;14.50;;
66727;SDS011;53641;44.274;19.890;2022-12-18T01:39:39;22.15;;;13.43;;
66727;SDS011;53641;44.274;19.890;2022-12-18T01:42:12;23.55;;;11.82;;
66727;SDS011;53641;44.274;19.890;2022-12-18T01:44:51;20.63;;;12.30;;
66727;SDS011;53641;44.274;19.890;2022-12-18T01:47:23;21.00;;;12.18;;
66727;SDS011;53641;44.274;19.890;2022-12-18T01:50:12;20.42;;;12.00;;
66727;SDS011;53641;44.274;19.890;2022-12-18T01:52:43;27.55;;;13.55;;
66727;SDS011;53641;44.274;19.890;2022-12-18T01:55:12;26.15;;;14.25;;
66727;SDS011;53641;44.274;19.890;2022-12-18T01:57:39;24.35;;;13.65;;
66727;SDS011;53641;44.274;19.890;2022-12-18T02:00:13;22.45;;;13.27;;
66727;SDS011;53641;44.274;19.890;2022-12-18T02:02:42;19.17;;;10.95;;
66727;SDS011;53641;44.274;19.890;2022-12-18T02:05:10;23.88;;;13.40;;
66727;SDS011;53641;44.274;19.890;2022-12-18T02:07:48;20.27;;;12.23;;
66727;SDS011;53641;44.274;19.890;2022-12-18T02:10:44;23.25;;;12.88;;
66727;SDS011;53641;44.274;19.890;2022-12-18T02:14:30;23.88;;;13.25;;
66727;SDS011;53641;44.274;19.890;2022-12-18T02:16:24;23.67;;;12.65;;
66727;SDS011;53641;44.274;19.890;2022-12-18T02:20:24;20.52;;;12.20;;
66727;SDS011;53641;44.274;19.890;2022-12-18T02:22:14;23.77;;;13.50;;
66727;SDS011;53641;44.274;19.890;2022-12-18T02:24:54;21.63;;;12.07;;
66727;SDS011;53641;44.274;19.890;2022-12-18T02:27:26;20.95;;;12.02;;
66727;SDS011;53641;44.274;19.890;2022-12-18T02:29:55;22.98;;;12.18;;
66727;SDS011;53641;44.274;19.890;2022-12-18T02:32:25;21.88;;;12.43;;
66727;SDS011;53641;44.274;19.890;2022-12-18T02:34:54;21.10;;;12.07;;
66727;SDS011;53641;44.274;19.890;2022-12-18T02:37:22;23.58;;;13.07;;
66727;SDS011;53641;44.274;19.890;2022-12-18T02:39:49;21.85;;;12.38;;
66727;SDS011;53641;44.274;19.890;2022-12-18T02:42:19;19.63;;;11.68;;
66727;SDS011;53641;44.274;19.890;2022-12-18T02:44:47;24.83;;;13.32;;
66727;SDS011;53641;44.274;19.890;2022-12-18T02:47:14;25.70;;;14.32;;
66727;SDS011;53641;44.274;19.890;2022-12-18T02:49:47;21.35;;;12.98;;
66727;SDS011;53641;44.274;19.890;2022-12-18T02:52:28;21.67;;;12.88;;
66727;SDS011;53641;44.274;19.890;2022-12-18T02:55:07;26.13;;;13.93;;
66727;SDS011;53641;44.274;19.890;2022-12-18T02:57:55;23.13;;;13.93;;
66727;SDS011;53641;44.274;19.890;2022-12-18T03:00:37;19.80;;;12.18;;
66727;SDS011;53641;44.274;19.890;2022-12-18T03:03:19;26.63;;;12.88;;
66727;SDS011;53641;44.274;19.890;2022-12-18T03:05:53;21.02;;;12.68;;
66727;SDS011;53641;44.274;19.890;2022-12-18T03:08:31;21.35;;;12.50;;
66727;SDS011;53641;44.274;19.890;2022-12-18T03:11:04;24.50;;;13.73;;
66727;SDS011;53641;44.274;19.890;2022-12-18T03:13:34;24.65;;;14.00;;
66727;SDS011;53641;44.274;19.890;2022-12-18T03:16:03;21.40;;;12.50;;
66727;SDS011;53641;44.274;19.890;2022-12-18T03:18:35;25.15;;;13.80;;
66727;SDS011;53641;44.274;19.890;2022-12-18T03:21:07;21.42;;;11.48;;
66727;SDS011;53641;44.274;19.890;2022-12-18T03:23:38;21.52;;;12.38;;
66727;SDS011;53641;44.274;19.890;2022-12-18T03:26:09;19.23;;;12.13;;
66727;SDS011;53641;44.274;19.890;2022-12-18T03:28:46;21.30;;;11.77;;
66727;SDS011;53641;44.274;19.890;2022-12-18T03:31:16;27.05;;;13.32;;
66727;SDS011;53641;44.274;19.890;2022-12-18T03:33:58;22.58;;;13.52;;
66727;SDS011;53641;44.274;19.890;2022-12-18T03:38:52;20.60;;;11.55;;
66727;SDS011;53641;44.274;19.890;2022-12-18T03:41:19;20.90;;;12.20;;
66727;SDS011;53641;44.274;19.890;2022-12-18T03:44:15;20.02;;;11.63;;
66727;SDS011;53641;44.274;19.890;2022-12-18T03:48:10;19.88;;;11.30;;
66727;SDS011;53641;44.274;19.890;2022-12-18T03:49:39;18.75;;;10.73;;
66727;SDS011;53641;44.274;19.890;2022-12-18T03:52:14;18.77;;;10.15;;
66727;SDS011;53641;44.274;19.890;2022-12-18T03:54:45;15.93;;;9.43;;
66727;SDS011;53641;44.274;19.890;2022-12-18T03:57:13;19.20;;;10.45;;
66727;SDS011;53641;44.274;19.890;2022-12-18T03:59:43;16.20;;;9.70;;
66727;SDS011;53641;44.274;19.890;2022-12-18T04:02:11;15.98;;;9.32;;
66727;SDS011;53641;44.274;19.890;2022-12-18T04:04:37;15.35;;;9.48;;
66727;SDS011;53641;44.274;19.890;2022-12-18T04:07:05;15.95;;;9.27;;
66727;SDS011;53641;44.274;19.890;2022-12-18T04:09:32;21.65;;;11.73;;
66727;SDS011;53641;44.274;19.890;2022-12-18T04:12:00;18.67;;;9.80;;
66727;SDS011;53641;44.274;19.890;2022-12-18T04:14:26;20.92;;;11.20;;
66727;SDS011;53641;44.274;19.890;2022-12-18T04:16:51;21.05;;;10.73;;
66727;SDS011;53641;44.274;19.890;2022-12-18T04:19:17;19.35;;;11.65;;
66727;SDS011;53641;44.274;19.890;2022-12-18T04:21:43;20.25;;;11.90;;
66727;SDS011;53641;44.274;19.890;2022-12-18T04:24:09;20.75;;;11.25;;
66727;SDS011;53641;44.274;19.890;2022-12-18T04:26:34;23.02;;;12.60;;
66727;SDS011;53641;44.274;19.890;2022-12-18T04:29:00;19.80;;;11.82;;
66727;SDS011;53641;44.274;19.890;2022-12-18T04:31:26;20.63;;;11.98;;
66727;SDS011;53641;44.274;19.890;2022-12-18T04:33:52;18.98;;;10.73;;
66727;SDS011;53641;44.274;19.890;2022-12-18T04:36:17;20.33;;;10.60;;
66727;SDS011;53641;44.274;19.890;2022-12-18T04:38:43;20.48;;;11.95;;
66727;SDS011;53641;44.274;19.890;2022-12-18T04:41:09;22.45;;;10.73;;
66727;SDS011;53641;44.274;19.890;2022-12-18T04:43:35;20.70;;;10.60;;
66727;SDS011;53641;44.274;19.890;2022-12-18T04:46:05;21.55;;;10.85;;
66727;SDS011;53641;44.274;19.890;2022-12-18T04:48:32;19.95;;;10.05;;
66727;SDS011;53641;44.274;19.890;2022-12-18T04:50:58;20.08;;;11.30;;
66727;SDS011;53641;44.274;19.890;2022-12-18T04:53:24;18.80;;;11.00;;
66727;SDS011;53641;44.274;19.890;2022-12-18T04:55:49;19.35;;;12.30;;
66727;SDS011;53641;44.274;19.890;2022-12-18T04:58:15;20.15;;;11.23;;
66727;SDS011;53641;44.274;19.890;2022-12-18T05:00:41;19.05;;;10.38;;
66727;SDS011;53641;44.274;19.890;2022-12-18T05:03:07;22.75;;;11.10;;
66727;SDS011;53641;44.274;19.890;2022-12-18T05:05:34;17.38;;;10.90;;
66727;SDS011;53641;44.274;19.890;2022-12-18T05:08:00;18.35;;;11.07;;
66727;SDS011;53641;44.274;19.890;2022-12-18T05:10:26;21.27;;;11.52;;
66727;SDS011;53641;44.274;19.890;2022-12-18T05:12:51;19.10;;;10.93;;
66727;SDS011;53641;44.274;19.890;2022-12-18T05:15:26;18.65;;;11.20;;
66727;SDS011;53641;44.274;19.890;2022-12-18T05:17:52;19.88;;;10.55;;
66727;SDS011;53641;44.274;19.890;2022-12-18T05:20:19;16.58;;;9.95;;
66727;SDS011;53641;44.274;19.890;2022-12-18T05:22:45;21.20;;;11.63;;
66727;SDS011;53641;44.274;19.890;2022-12-18T05:25:11;22.27;;;11.55;;
66727;SDS011;53641;44.274;19.890;2022-12-18T05:27:36;23.08;;;12.07;;
66727;SDS011;53641;44.274;19.890;2022-12-18T05:30:02;24.00;;;12.30;;
66727;SDS011;53641;44.274;19.890;2022-12-18T05:32:28;24.33;;;13.40;;
66727;SDS011;53641;44.274;19.890;2022-12-18T05:34:54;20.20;;;11.90;;
66727;SDS011;53641;44.274;19.890;2022-12-18T05:37:22;19.48;;;11.73;;
66727;SDS011;53641;44.274;19.890;2022-12-18T05:39:48;22.23;;;12.05;;
66727;SDS011;53641;44.274;19.890;2022-12-18T05:42:13;21.23;;;12.23;;
66727;SDS011;53641;44.274;19.890;2022-12-18T05:44:39;20.70;;;12.10;;
66727;SDS011;53641;44.274;19.890;2022-12-18T05:47:05;25.95;;;13.05;;
66727;SDS011;53641;44.274;19.890;2022-12-18T05:49:31;20.48;;;12.50;;
66727;SDS011;53641;44.274;19.890;2022-12-18T05:51:57;21.08;;;12.40;;
66727;SDS011;53641;44.274;19.890;2022-12-18T05:54:23;20.17;;;11.93;;
66727;SDS011;53641;44.274;19.890;2022-12-18T05:56:49;19.58;;;11.80;;
66727;SDS011;53641;44.274;19.890;2022-12-18T05:59:14;22.45;;;12.80;;
66727;SDS011;53641;44.274;19.890;2022-12-18T06:01:40;19.75;;;11.68;;
66727;SDS011;53641;44.274;19.890;2022-12-18T06:04:06;20.35;;;11.77;;
66727;SDS011;53641;44.274;19.890;2022-12-18T06:06:31;20.23;;;11.45;;
66727;SDS011;53641;44.274;19.890;2022-12-18T06:08:57;17.73;;;10.98;;
66727;SDS011;53641;44.274;19.890;2022-12-18T06:11:24;20.25;;;12.07;;
66727;SDS011;53641;44.274;19.890;2022-12-18T06:13:52;25.02;;;14.02;;
66727;SDS011;53641;44.274;19.890;2022-12-18T06:16:19;26.38;;;14.20;;
66727;SDS011;53641;44.274;19.890;2022-12-18T06:18:45;30.00;;;14.93;;
66727;SDS011;53641;44.274;19.890;2022-12-18T06:21:11;29.48;;;16.05;;
66727;SDS011;53641;44.274;19.890;2022-12-18T06:23:37;27.48;;;14.10;;
66727;SDS011;53641;44.274;19.890;2022-12-18T06:26:04;28.10;;;15.10;;
66727;SDS011;53641;44.274;19.890;2022-12-18T06:28:31;28.10;;;14.00;;
66727;SDS011;53641;44.274;19.890;2022-12-18T06:30:56;24.40;;;13.60;;
66727;SDS011;53641;44.274;19.890;2022-12-18T06:33:25;25.48;;;14.15;;
66727;SDS011;53641;44.274;19.890;2022-12-18T06:35:52;34.33;;;17.27;;
66727;SDS011;53641;44.274;19.890;2022-12-18T06:38:17;29.55;;;16.13;;
66727;SDS011;53641;44.274;19.890;2022-12-18T06:40:43;29.73;;;17.52;;
66727;SDS011;53641;44.274;19.890;2022-12-18T06:43:09;31.85;;;16.92;;
66727;SDS011;53641;44.274;19.890;2022-12-18T06:45:35;29.08;;;17.17;;
66727;SDS011;53641;44.274;19.890;2022-12-18T06:48:00;24.23;;;13.77;;
66727;SDS011;53641;44.274;19.890;2022-12-18T06:50:26;22.65;;;13.75;;
66727;SDS011;53641;44.274;19.890;2022-12-18T06:52:52;25.40;;;15.30;;
66727;SDS011;53641;44.274;19.890;2022-12-18T06:55:18;20.60;;;12.32;;
66727;SDS011;53641;44.274;19.890;2022-12-18T06:57:47;22.40;;;13.25;;
66727;SDS011;53641;44.274;19.890;2022-12-18T07:00:13;22.75;;;14.50;;
66727;SDS011;53641;44.274;19.890;2022-12-18T07:02:39;29.45;;;15.20;;
66727;SDS011;53641;44.274;19.890;2022-12-18T07:05:05;29.55;;;15.32;;
66727;SDS011;53641;44.274;19.890;2022-12-18T07:07:34;29.90;;;15.98;;
66727;SDS011;53641;44.274;19.890;2022-12-18T07:10:00;23.52;;;12.90;;
66727;SDS011;53641;44.274;19.890;2022-12-18T07:12:29;21.60;;;12.65;;
66727;SDS011;53641;44.274;19.890;2022-12-18T07:14:54;24.65;;;14.30;;
66727;SDS011;53641;44.274;19.890;2022-12-18T07:17:20;23.35;;;13.45;;
66727;SDS011;53641;44.274;19.890;2022-12-18T07:19:46;19.02;;;11.38;;
66727;SDS011;53641;44.274;19.890;2022-12-18T07:22:12;25.33;;;13.88;;
66727;SDS011;53641;44.274;19.890;2022-12-18T07:24:37;24.52;;;13.70;;
66727;SDS011;53641;44.274;19.890;2022-12-18T07:27:03;24.63;;;14.48;;
66727;SDS011;53641;44.274;19.890;2022-12-18T07:29:29;22.42;;;13.25;;
66727;SDS011;53641;44.274;19.890;2022-12-18T07:31:54;25.45;;;14.77;;
66727;SDS011;53641;44.274;19.890;2022-12-18T07:34:20;23.88;;;14.98;;
66727;SDS011;53641;44.274;19.890;2022-12-18T07:36:46;30.10;;;16.77;;
66727;SDS011;53641;44.274;19.890;2022-12-18T07:39:12;25.60;;;14.65;;
66727;SDS011;53641;44.274;19.890;2022-12-18T07:41:37;30.63;;;17.30;;
66727;SDS011;53641;44.274;19.890;2022-12-18T07:44:08;26.52;;;14.18;;
66727;SDS011;53641;44.274;19.890;2022-12-18T07:46:34;23.30;;;13.85;;
66727;SDS011;53641;44.274;19.890;2022-12-18T07:49:00;27.38;;;15.73;;
66727;SDS011;53641;44.274;19.890;2022-12-18T07:51:26;29.42;;;16.90;;
66727;SDS011;53641;44.274;19.890;2022-12-18T07:53:51;27.75;;;16.45;;
66727;SDS011;53641;44.274;19.890;2022-12-18T07:56:17;34.05;;;17.40;;
66727;SDS011;53641;44.274;19.890;2022-12-18T07:58:43;28.63;;;16.95;;
66727;SDS011;53641;44.274;19.890;2022-12-18T08:01:10;20.27;;;12.02;;
66727;SDS011;53641;44.274;19.890;2022-12-18T08:03:37;24.90;;;14.45;;
66727;SDS011;53641;44.274;19.890;2022-12-18T08:06:04;27.10;;;14.38;;
66727;SDS011;53641;44.274;19.890;2022-12-18T08:08:33;26.53;;;15.50;;
66727;SDS011;53641;44.274;19.890;2022-12-18T08:11:00;22.70;;;14.05;;
66727;SDS011;53641;44.274;19.890;2022-12-18T08:13:26;25.92;;;14.77;;
66727;SDS011;53641;44.274;19.890;2022-12-18T08:15:57;31.67;;;18.10;;
66727;SDS011;53641;44.274;19.890;2022-12-18T08:20:49;27.55;;;15.50;;
66727;SDS011;53641;44.274;19.890;2022-12-18T08:23:15;27.92;;;16.20;;
66727;SDS011;53641;44.274;19.890;2022-12-18T08:25:41;27.27;;;15.60;;
66727;SDS011;53641;44.274;19.890;2022-12-18T08:28:07;28.08;;;16.92;;
66727;SDS011;53641;44.274;19.890;2022-12-18T08:30:32;30.55;;;17.33;;
66727;SDS011;53641;44.274;19.890;2022-12-18T08:32:58;33.70;;;18.80;;
66727;SDS011;53641;44.274;19.890;2022-12-18T08:35:24;34.83;;;19.23;;
66727;SDS011;53641;44.274;19.890;2022-12-18T08:37:50;39.80;;;20.08;;
66727;SDS011;53641;44.274;19.890;2022-12-18T08:40:15;29.33;;;16.05;;
66727;SDS011;53641;44.274;19.890;2022-12-18T08:42:41;26.15;;;15.35;;
66727;SDS011;53641;44.274;19.890;2022-12-18T08:45:27;32.58;;;18.20;;
66727;SDS011;53641;44.274;19.890;2022-12-18T08:47:53;21.55;;;13.13;;
66727;SDS011;53641;44.274;19.890;2022-12-18T08:50:19;24.15;;;13.02;;
66727;SDS011;53641;44.274;19.890;2022-12-18T08:52:45;27.75;;;14.60;;
66727;SDS011;53641;44.274;19.890;2022-12-18T08:55:11;21.67;;;12.95;;
66727;SDS011;53641;44.274;19.890;2022-12-18T08:57:36;25.92;;;14.63;;
66727;SDS011;53641;44.274;19.890;2022-12-18T09:00:03;23.73;;;13.65;;
66727;SDS011;53641;44.274;19.890;2022-12-18T09:02:29;23.90;;;14.02;;
66727;SDS011;53641;44.274;19.890;2022-12-18T09:04:55;26.33;;;15.25;;
66727;SDS011;53641;44.274;19.890;2022-12-18T09:07:21;29.45;;;16.55;;
66727;SDS011;53641;44.274;19.890;2022-12-18T09:09:47;27.30;;;15.85;;
66727;SDS011;53641;44.274;19.890;2022-12-18T09:12:12;26.60;;;15.55;;
66727;SDS011;53641;44.274;19.890;2022-12-18T09:14:38;28.55;;;16.75;;
66727;SDS011;53641;44.274;19.890;2022-12-18T09:17:04;27.77;;;15.90;;
66727;SDS011;53641;44.274;19.890;2022-12-18T09:19:30;27.50;;;14.57;;
66727;SDS011;53641;44.274;19.890;2022-12-18T09:21:55;26.42;;;15.60;;
66727;SDS011;53641;44.274;19.890;2022-12-18T09:24:21;28.40;;;15.57;;
66727;SDS011;53641;44.274;19.890;2022-12-18T09:26:52;28.98;;;15.30;;
66727;SDS011;53641;44.274;19.890;2022-12-18T09:29:19;29.17;;;15.30;;
66727;SDS011;53641;44.274;19.890;2022-12-18T09:31:44;29.92;;;16.30;;
66727;SDS011;53641;44.274;19.890;2022-12-18T09:34:11;27.65;;;15.30;;
66727;SDS011;53641;44.274;19.890;2022-12-18T09:36:37;25.63;;;15.80;;
66727;SDS011;53641;44.274;19.890;2022-12-18T09:39:03;49.53;;;31.95;;
66727;SDS011;53641;44.274;19.890;2022-12-18T09:41:44;26.27;;;15.90;;
66727;SDS011;53641;44.274;19.890;2022-12-18T09:44:24;25.27;;;15.30;;
66727;SDS011;53641;44.274;19.890;2022-12-18T09:47:02;25.67;;;15.97;;
66727;SDS011;53641;44.274;19.890;2022-12-18T09:49:36;30.50;;;16.88;;
66727;SDS011;53641;44.274;19.890;2022-12-18T09:52:19;31.95;;;17.77;;
66727;SDS011;53641;44.274;19.890;2022-12-18T09:54:53;27.20;;;17.17;;
66727;SDS011;53641;44.274;19.890;2022-12-18T09:57:23;28.52;;;16.83;;
66727;SDS011;53641;44.274;19.890;2022-12-18T09:59:55;29.20;;;16.38;;
66727;SDS011;53641;44.274;19.890;2022-12-18T10:02:30;27.85;;;16.27;;
66727;SDS011;53641;44.274;19.890;2022-12-18T10:05:03;27.48;;;15.82;;
66727;SDS011;53641;44.274;19.890;2022-12-18T10:07:38;30.48;;;17.80;;
66727;SDS011;53641;44.274;19.890;2022-12-18T10:10:14;35.85;;;20.67;;
66727;SDS011;53641;44.274;19.890;2022-12-18T10:12:53;34.50;;;21.02;;
66727;SDS011;53641;44.274;19.890;2022-12-18T10:15:29;25.83;;;15.57;;
66727;SDS011;53641;44.274;19.890;2022-12-18T10:18:04;28.42;;;16.70;;
66727;SDS011;53641;44.274;19.890;2022-12-18T10:23:22;23.83;;;12.93;;
66727;SDS011;53641;44.274;19.890;2022-12-18T10:26:05;22.13;;;13.60;;
66727;SDS011;53641;44.274;19.890;2022-12-18T10:28:32;26.85;;;15.05;;
66727;SDS011;53641;44.274;19.890;2022-12-18T10:31:01;23.85;;;14.35;;
66727;SDS011;53641;44.274;19.890;2022-12-18T10:33:28;27.48;;;16.48;;
66727;SDS011;53641;44.274;19.890;2022-12-18T10:35:56;26.20;;;14.25;;
66727;SDS011;53641;44.274;19.890;2022-12-18T10:38:26;28.15;;;15.82;;
66727;SDS011;53641;44.274;19.890;2022-12-18T10:40:55;28.58;;;15.43;;
66727;SDS011;53641;44.274;19.890;2022-12-18T10:43:24;30.88;;;15.57;;
66727;SDS011;53641;44.274;19.890;2022-12-18T10:46:04;26.42;;;15.75;;
66727;SDS011;53641;44.274;19.890;2022-12-18T10:48:51;30.50;;;17.33;;
66727;SDS011;53641;44.274;19.890;2022-12-18T10:51:23;26.45;;;15.68;;
66727;SDS011;53641;44.274;19.890;2022-12-18T10:53:54;26.50;;;15.27;;
66727;SDS011;53641;44.274;19.890;2022-12-18T10:56:21;28.77;;;16.25;;
66727;SDS011;53641;44.274;19.890;2022-12-18T10:58:57;28.08;;;15.60;;
66727;SDS011;53641;44.274;19.890;2022-12-18T11:01:24;26.35;;;15.32;;
66727;SDS011;53641;44.274;19.890;2022-12-18T11:03:59;26.17;;;15.98;;
66727;SDS011;53641;44.274;19.890;2022-12-18T11:06:26;25.10;;;14.57;;
66727;SDS011;53641;44.274;19.890;2022-12-18T11:09:01;25.80;;;15.35;;
66727;SDS011;53641;44.274;19.890;2022-12-18T11:11:28;27.98;;;16.38;;
66727;SDS011;53641;44.274;19.890;2022-12-18T11:14:04;25.92;;;15.02;;
66727;SDS011;53641;44.274;19.890;2022-12-18T11:16:36;30.85;;;16.92;;
66727;SDS011;53641;44.274;19.890;2022-12-18T11:19:20;26.98;;;15.95;;
66727;SDS011;53641;44.274;19.890;2022-12-18T11:21:49;31.30;;;17.40;;
66727;SDS011;53641;44.274;19.890;2022-12-18T11:24:32;37.28;;;21.55;;
66727;SDS011;53641;44.274;19.890;2022-12-18T11:27:00;40.47;;;22.25;;
66727;SDS011;53641;44.274;19.890;2022-12-18T11:29:30;33.75;;;18.13;;
66727;SDS011;53641;44.274;19.890;2022-12-18T11:33:14;33.67;;;19.10;;
66727;SDS011;53641;44.274;19.890;2022-12-18T11:34:52;28.85;;;16.75;;
66727;SDS011;53641;44.274;19.890;2022-12-18T11:37:22;29.27;;;16.60;;
66727;SDS011;53641;44.274;19.890;2022-12-18T11:39:59;28.65;;;16.88;;
66727;SDS011;53641;44.274;19.890;2022-12-18T11:42:38;36.22;;;18.52;;
66727;SDS011;53641;44.274;19.890;2022-12-18T11:45:23;34.78;;;19.85;;
66727;SDS011;53641;44.274;19.890;2022-12-18T11:48:03;35.45;;;21.25;;
66727;SDS011;53641;44.274;19.890;2022-12-18T11:50:41;29.63;;;18.15;;
66727;SDS011;53641;44.274;19.890;2022-12-18T11:53:11;38.75;;;22.15;;
66727;SDS011;53641;44.274;19.890;2022-12-18T11:55:43;35.15;;;20.40;;
66727;SDS011;53641;44.274;19.890;2022-12-18T11:58:28;29.85;;;17.52;;
66727;SDS011;53641;44.274;19.890;2022-12-18T12:01:07;36.22;;;19.50;;
66727;SDS011;53641;44.274;19.890;2022-12-18T12:05:05;48.22;;;25.00;;
66727;SDS011;53641;44.274;19.890;2022-12-18T12:06:47;36.85;;;21.08;;
66727;SDS011;53641;44.274;19.890;2022-12-18T12:09:40;29.92;;;18.67;;
66727;SDS011;53641;44.274;19.890;2022-12-18T12:15:21;30.65;;;17.23;;
66727;SDS011;53641;44.274;19.890;2022-12-18T12:17:59;56.08;;;27.85;;
66727;SDS011;53641;44.274;19.890;2022-12-18T12:20:36;41.28;;;22.27;;
66727;SDS011;53641;44.274;19.890;2022-12-18T12:23:22;32.35;;;18.25;;
66727;SDS011;53641;44.274;19.890;2022-12-18T12:26:10;28.38;;;17.83;;
66727;SDS011;53641;44.274;19.890;2022-12-18T12:28:46;33.28;;;20.17;;
66727;SDS011;53641;44.274;19.890;2022-12-18T12:32:35;28.30;;;17.55;;
66727;SDS011;53641;44.274;19.890;2022-12-18T12:34:41;31.10;;;18.08;;
66727;SDS011;53641;44.274;19.890;2022-12-18T12:37:23;34.55;;;19.55;;
66727;SDS011;53641;44.274;19.890;2022-12-18T12:39:56;31.13;;;18.05;;
66727;SDS011;53641;44.274;19.890;2022-12-18T12:42:29;27.10;;;16.88;;
66727;SDS011;53641;44.274;19.890;2022-12-18T12:45:23;26.67;;;16.42;;
66727;SDS011;53641;44.274;19.890;2022-12-18T12:47:54;27.73;;;17.52;;
66727;SDS011;53641;44.274;19.890;2022-12-18T12:50:21;28.05;;;17.13;;
66727;SDS011;53641;44.274;19.890;2022-12-18T12:52:50;28.30;;;17.13;;
66727;SDS011;53641;44.274;19.890;2022-12-18T12:55:25;28.92;;;17.95;;
66727;SDS011;53641;44.274;19.890;2022-12-18T12:58:00;35.88;;;17.55;;
66727;SDS011;53641;44.274;19.890;2022-12-18T13:00:36;32.28;;;18.35;;
66727;SDS011;53641;44.274;19.890;2022-12-18T13:03:13;32.22;;;18.13;;
66727;SDS011;53641;44.274;19.890;2022-12-18T13:05:53;35.00;;;18.63;;
66727;SDS011;53641;44.274;19.890;2022-12-18T13:08:27;35.28;;;19.95;;
66727;SDS011;53641;44.274;19.890;2022-12-18T13:10:54;31.45;;;18.90;;
66727;SDS011;53641;44.274;19.890;2022-12-18T13:13:51;34.75;;;20.45;;
66727;SDS011;53641;44.274;19.890;2022-12-18T13:16:22;29.65;;;17.17;;
66727;SDS011;53641;44.274;19.890;2022-12-18T13:18:50;27.98;;;15.75;;
66727;SDS011;53641;44.274;19.890;2022-12-18T13:21:23;27.92;;;16.25;;
66727;SDS011;53641;44.274;19.890;2022-12-18T13:23:52;32.03;;;18.60;;
66727;SDS011;53641;44.274;19.890;2022-12-18T13:26:29;28.25;;;16.73;;
66727;SDS011;53641;44.274;19.890;2022-12-18T13:28:56;32.03;;;17.92;;
66727;SDS011;53641;44.274;19.890;2022-12-18T13:34:35;29.75;;;17.20;;
66727;SDS011;53641;44.274;19.890;2022-12-18T13:37:59;29.27;;;17.20;;
66727;SDS011;53641;44.274;19.890;2022-12-18T13:40:58;31.85;;;19.67;;
66727;SDS011;53641;44.274;19.890;2022-12-18T13:43:48;28.05;;;16.52;;
66727;SDS011;53641;44.274;19.890;2022-12-18T13:46:20;29.75;;;17.17;;
66727;SDS011;53641;44.274;19.890;2022-12-18T13:48:59;29.65;;;17.58;;
66727;SDS011;53641;44.274;19.890;2022-12-18T13:51:28;25.55;;;15.30;;
66727;SDS011;53641;44.274;19.890;2022-12-18T13:54:05;28.30;;;15.43;;
66727;SDS011;53641;44.274;19.890;2022-12-18T13:56:42;33.03;;;17.45;;
66727;SDS011;53641;44.274;19.890;2022-12-18T13:59:11;30.73;;;18.27;;
66727;SDS011;53641;44.274;19.890;2022-12-18T14:01:48;31.48;;;18.42;;
66727;SDS011;53641;44.274;19.890;2022-12-18T14:04:32;24.58;;;15.02;;
66727;SDS011;53641;44.274;19.890;2022-12-18T14:07:22;25.77;;;13.98;;
66727;SDS011;53641;44.274;19.890;2022-12-18T14:09:48;22.02;;;13.23;;
66727;SDS011;53641;44.274;19.890;2022-12-18T14:12:17;24.58;;;14.48;;
66727;SDS011;53641;44.274;19.890;2022-12-18T14:15:05;22.58;;;13.70;;
66727;SDS011;53641;44.274;19.890;2022-12-18T14:17:37;27.45;;;15.43;;
66727;SDS011;53641;44.274;19.890;2022-12-18T14:20:03;27.38;;;14.88;;
66727;SDS011;53641;44.274;19.890;2022-12-18T14:22:29;30.23;;;16.10;;
66727;SDS011;53641;44.274;19.890;2022-12-18T14:25:10;30.10;;;17.27;;
66727;SDS011;53641;44.274;19.890;2022-12-18T14:27:45;27.58;;;16.23;;
66727;SDS011;53641;44.274;19.890;2022-12-18T14:30:23;29.10;;;15.98;;
66727;SDS011;53641;44.274;19.890;2022-12-18T14:33:04;27.77;;;13.95;;
66727;SDS011;53641;44.274;19.890;2022-12-18T14:35:39;25.65;;;14.32;;
66727;SDS011;53641;44.274;19.890;2022-12-18T14:38:41;24.27;;;14.23;;
66727;SDS011;53641;44.274;19.890;2022-12-18T14:40:58;24.20;;;13.95;;
66727;SDS011;53641;44.274;19.890;2022-12-18T14:43:25;26.73;;;13.57;;
66727;SDS011;53641;44.274;19.890;2022-12-18T14:45:53;30.63;;;17.20;;